Hubbard Lake, Michigan
Current Conditions -  °F | °C
As of 12:54 PM on Monday 24 Nov 2014 (Local Time) from KAPN Reporting Station
Overcast Overcast  
Wind Chill: 51°   Ceiling: 2200
Heat Index: 51°   Visibility: 10mi
Dew Point: 44°   Wind: 10mph
Humidity: 77%   Direction: 250°WSW
Pressure: 28.99"   Gusts: NA
Location:  44.87°N, 83.59°W
Report Text: KAPN 241754Z AUTO 25009KT 10SM OVC022 11/07 A2899 RMK AO2 SLP819 60001 T01060067 10111 20078 51005
Loading
Personal Weather Stations






























Interactive Weather Map New forecast layout! Learn more

10-Day Weather Forecast

Advertisements
Track Severe Weather on mobile